createdAt,value
2023-04-01T00:00:58.048Z,24.00
2023-04-01T00:03:25.350Z,26.98
2023-04-01T00:05:52.963Z,23.70
2023-04-01T00:08:19.547Z,28.75
2023-04-01T00:10:46.382Z,23.17
2023-04-01T00:13:12.831Z,28.48
2023-04-01T00:15:39.123Z,28.98
2023-04-01T00:18:06.160Z,31.27
2023-04-01T00:20:33.172Z,35.80
2023-04-01T00:22:59.511Z,26.75
2023-04-01T00:25:26.066Z,32.28
2023-04-01T00:27:52.491Z,31.65
2023-04-01T00:30:18.896Z,31.70
2023-04-01T00:32:45.628Z,32.70
2023-04-01T00:35:12.073Z,30.63
2023-04-01T00:37:40.378Z,40.88
2023-04-01T00:40:07.987Z,43.58
2023-04-01T00:42:34.394Z,45.80
2023-04-01T00:45:20.808Z,38.47
2023-04-01T00:47:47.378Z,41.80
2023-04-01T00:50:16.526Z,39.42
2023-04-01T00:52:43.467Z,40.58
2023-04-01T00:55:11.441Z,47.13
2023-04-01T00:57:38.542Z,32.22
2023-04-01T01:00:08.331Z,40.10
2023-04-01T01:02:35.987Z,50.60
2023-04-01T01:05:02.910Z,41.70
2023-04-01T01:07:29.255Z,41.97
2023-04-01T01:10:01.769Z,45.53
2023-04-01T01:12:28.160Z,42.08
2023-04-01T01:15:09.840Z,47.00
2023-04-01T01:17:45.260Z,46.47
2023-04-01T01:20:25.240Z,39.05
2023-04-01T01:25:22.258Z,42.00
2023-04-01T01:27:58.542Z,47.60
2023-04-01T01:30:39.968Z,38.45
2023-04-01T01:33:06.432Z,37.80
2023-04-01T01:35:47.342Z,38.08
2023-04-01T01:40:42.198Z,30.90
2023-04-01T01:43:10.969Z,31.90
2023-04-01T01:45:40.564Z,33.10
2023-04-01T01:48:07.966Z,29.08
2023-04-01T01:50:34.711Z,27.35
2023-04-01T01:53:04.988Z,21.45
2023-04-01T01:55:38.712Z,22.98
2023-04-01T01:58:08.628Z,30.45
2023-04-01T02:00:35.523Z,26.90
2023-04-01T02:03:02.543Z,33.05
2023-04-01T02:05:31.556Z,28.17
2023-04-01T02:08:09.050Z,29.27
2023-04-01T02:10:38.472Z,26.45
2023-04-01T02:13:08.829Z,21.48
2023-04-01T02:15:38.630Z,25.15
2023-04-01T02:18:05.900Z,26.30
2023-04-01T02:20:32.444Z,24.10
2023-04-01T02:23:00.719Z,25.98
2023-04-01T02:25:31.544Z,24.95
2023-04-01T02:27:58.985Z,31.40
2023-04-01T02:30:27.701Z,19.83
2023-04-01T02:32:54.348Z,23.10
2023-04-01T02:35:20.951Z,19.88
2023-04-01T02:37:49.544Z,15.32
2023-04-01T02:40:18.920Z,15.13
2023-04-01T02:42:46.627Z,21.13
2023-04-01T02:45:13.346Z,15.77
2023-04-01T02:47:39.754Z,18.95
2023-04-01T02:50:07.106Z,18.55
2023-04-01T02:52:33.418Z,18.05
2023-04-01T02:54:59.770Z,19.63
2023-04-01T02:57:26.613Z,18.25
2023-04-01T02:59:52.974Z,16.50
2023-04-01T03:02:19.496Z,17.40
2023-04-01T03:04:46.682Z,18.77
2023-04-01T03:07:13.043Z,17.30
2023-04-01T03:09:39.464Z,19.58
2023-04-01T03:12:06.238Z,19.92
2023-04-01T03:14:32.569Z,21.65
2023-04-01T03:16:59.222Z,19.33
2023-04-01T03:19:25.573Z,20.73
2023-04-01T03:21:51.882Z,17.80
2023-04-01T03:24:18.181Z,16.17
2023-04-01T03:26:44.505Z,18.73
2023-04-01T03:29:11.066Z,15.48
2023-04-01T03:31:40.219Z,20.45
2023-04-01T03:34:06.744Z,14.07
2023-04-01T03:36:33.119Z,19.58
2023-04-01T03:38:59.421Z,15.82
2023-04-01T03:41:26.458Z,16.92
2023-04-01T03:43:53.969Z,14.65
2023-04-01T03:46:20.773Z,15.15
2023-04-01T03:48:47.582Z,16.55
2023-04-01T03:51:14.071Z,16.80
2023-04-01T03:53:40.512Z,13.43
2023-04-01T03:56:07.343Z,16.15
2023-04-01T03:58:33.774Z,16.88
2023-04-01T04:01:00.510Z,16.52
2023-04-01T04:03:27.249Z,13.80
2023-04-01T04:05:53.704Z,14.40
2023-04-01T04:08:22.486Z,15.93
2023-04-01T04:10:49.440Z,13.32
2023-04-01T04:13:15.835Z,19.40
2023-04-01T04:15:42.223Z,13.52
2023-04-01T04:18:08.678Z,16.48
2023-04-01T04:20:35.911Z,16.77
2023-04-01T04:23:02.235Z,16.25
2023-04-01T04:25:28.643Z,15.70
2023-04-01T04:27:55.063Z,14.05
2023-04-01T04:30:21.396Z,13.93
2023-04-01T04:32:47.801Z,12.50
2023-04-01T04:35:14.136Z,12.45
2023-04-01T04:37:40.535Z,12.55
2023-04-01T04:40:07.554Z,15.43
2023-04-01T04:42:33.846Z,16.08
2023-04-01T04:45:00.183Z,17.65
2023-04-01T04:47:26.547Z,18.08
2023-04-01T04:49:52.888Z,20.23
2023-04-01T04:52:19.190Z,18.15
2023-04-01T04:54:45.480Z,25.65
2023-04-01T04:57:12.040Z,18.80
2023-04-01T04:59:38.573Z,18.25
2023-04-01T05:02:04.960Z,19.83
2023-04-01T05:04:34.924Z,15.00
2023-04-01T05:07:01.329Z,17.77
2023-04-01T05:09:27.626Z,14.32
2023-04-01T05:11:53.908Z,15.52
2023-04-01T05:14:20.256Z,18.13
2023-04-01T05:16:46.631Z,17.20
2023-04-01T05:19:13.022Z,13.05
2023-04-01T05:21:39.371Z,13.05
2023-04-01T05:24:08.593Z,13.32
2023-04-01T05:26:34.910Z,15.82
2023-04-01T05:29:01.313Z,13.95
2023-04-01T05:31:27.724Z,15.50
2023-04-01T05:33:55.053Z,21.08
2023-04-01T05:36:21.488Z,15.27
2023-04-01T05:38:48.223Z,14.93
2023-04-01T05:41:15.420Z,18.67
2023-04-01T05:43:42.513Z,20.30
2023-04-01T05:46:09.297Z,16.27
2023-04-01T05:48:36.130Z,15.18
2023-04-01T05:51:03.282Z,13.85
2023-04-01T05:53:29.680Z,14.82
2023-04-01T05:55:56.078Z,15.55
2023-04-01T05:58:22.396Z,13.50
2023-04-01T06:00:56.057Z,12.32
2023-04-01T06:03:28.889Z,12.00
2023-04-01T06:05:55.366Z,11.80
2023-04-01T06:08:21.666Z,15.48
2023-04-01T06:10:50.715Z,12.38
2023-04-01T06:13:39.822Z,11.75
2023-04-01T06:16:15.611Z,13.30
2023-04-01T06:18:45.112Z,12.45
2023-04-01T06:21:31.337Z,13.38
2023-04-01T06:24:03.964Z,14.23
2023-04-01T06:26:34.982Z,12.27
2023-04-01T06:29:15.924Z,15.02
2023-04-01T06:34:08.474Z,10.88
2023-04-01T06:36:49.800Z,10.95
2023-04-01T06:39:34.821Z,12.75
2023-04-01T06:42:04.317Z,10.35
2023-04-01T06:44:51.136Z,10.23
2023-04-01T06:47:33.045Z,12.02
2023-04-01T06:50:08.532Z,9.93
2023-04-01T06:52:50.145Z,11.13
2023-04-01T06:55:34.325Z,10.13
2023-04-01T06:58:01.609Z,9.32
2023-04-01T07:00:36.823Z,9.55
2023-04-01T07:03:11.541Z,7.20
2023-04-01T07:05:38.237Z,7.13
2023-04-01T07:08:06.900Z,9.63
2023-04-01T07:10:43.836Z,8.35
2023-04-01T07:13:23.003Z,8.27
2023-04-01T07:16:08.234Z,7.88
2023-04-01T07:18:39.760Z,6.05
2023-04-01T07:21:11.325Z,7.32
2023-04-01T07:23:40.641Z,12.65
2023-04-01T07:26:13.759Z,13.35
2023-04-01T07:28:40.265Z,12.10
2023-04-01T07:31:12.833Z,11.20
2023-04-01T07:33:48.361Z,10.32
2023-04-01T07:36:33.497Z,12.32
2023-04-01T07:39:18.706Z,12.43
2023-04-01T07:41:54.311Z,11.18
2023-04-01T07:44:20.837Z,11.00
2023-04-01T07:47:07.414Z,9.38
2023-04-01T07:49:48.831Z,9.35
2023-04-01T07:52:27.026Z,6.90
2023-04-01T07:54:53.325Z,9.18
2023-04-01T07:57:25.798Z,9.43
2023-04-01T07:59:54.930Z,10.63
2023-04-01T08:02:30.669Z,10.65
2023-04-01T08:05:12.134Z,7.60
2023-04-01T08:07:38.470Z,8.60
2023-04-01T08:10:23.625Z,10.50
2023-04-01T08:12:56.157Z,11.43
2023-04-01T08:15:24.705Z,12.30
2023-04-01T08:18:04.925Z,11.65
2023-04-01T08:20:34.488Z,11.65
2023-04-01T08:23:18.250Z,12.10
2023-04-01T08:25:49.122Z,10.82
